La rose des vents
Donnes mto: Semaine 02/07/07 - 08/07/07 (S 27)
Date Horaire Temp. E. Hum. E. P.atmo. Pluie Vent 1mn Direction Ensoleilleme Ev.Tr. Solaire P. de rose Temp au vent Rafales
02/07/2007 00:00 18,9 C 89 % 1010,9 hPa 0,0 l/m 0,6 km/h (0 Bft) S 0,00 h 0,025 mm 0 W/m 17,0 C 18,9 C 1,0 km/h (0 Bft)
02/07/2007 01:00 18,7 C 90 % 1010,7 hPa 0,0 l/m 0,6 km/h (0 Bft) S 0,00 h 0,025 mm 0 W/m 17,1 C 18,7 C 1,1 km/h (1 Bft)
02/07/2007 02:00 18,4 C 91 % 1010,0 hPa 0,0 l/m 0,8 km/h (0 Bft) S 0,00 h 0,025 mm 0 W/m 17,0 C 18,4 C 1,3 km/h (1 Bft)
02/07/2007 03:00 18,3 C 93 % 1009,8 hPa 0,0 l/m 2,5 km/h (1 Bft) SO 0,00 h 0,025 mm 0 W/m 17,1 C 18,3 C 3,9 km/h (1 Bft)
02/07/2007 04:00 18,5 C 94 % 1009,8 hPa 0,0 l/m 0,1 km/h (0 Bft) SO 0,00 h 0,025 mm 0 W/m 17,5 C 18,5 C 0,3 km/h (0 Bft)
02/07/2007 05:00 18,6 C 94 % 1010,2 hPa 0,0 l/m 1,0 km/h (0 Bft) O-SO 0,00 h 0,000 mm 0 W/m 17,6 C 18,6 C 1,8 km/h (1 Bft)
02/07/2007 06:00 18,4 C 94 % 1010,3 hPa 0,0 l/m 2,2 km/h (1 Bft) O 0,00 h 0,000 mm 11 W/m 17,5 C 18,4 C 3,7 km/h (1 Bft)
02/07/2007 07:00 18,3 C 95 % 1009,6 hPa 0,2 l/m 3,0 km/h (1 Bft) N-NE 0,00 h 0,000 mm 32 W/m 17,5 C 18,3 C 4,8 km/h (1 Bft)
02/07/2007 08:00 19,2 C 95 % 1009,4 hPa 0,0 l/m 2,3 km/h (1 Bft) S-SO 0,00 h 0,025 mm 132 W/m 18,3 C 19,2 C 3,8 km/h (1 Bft)
02/07/2007 09:00 21,1 C 85 % 1009,5 hPa 0,0 l/m 4,8 km/h (1 Bft) S-SO 0,33 h 0,076 mm 338 W/m 18,4 C 21,1 C 7,2 km/h (2 Bft)
02/07/2007 10:00 24,0 C 65 % 1009,4 hPa 0,0 l/m 6,2 km/h (2 Bft) S 0,57 h 0,229 mm 500 W/m 17,1 C 24,0 C 10,2 km/h (2 Bft)
02/07/2007 11:00 25,9 C 61 % 1009,0 hPa 0,0 l/m 8,0 km/h (2 Bft) S 1,00 h 0,330 mm 761 W/m 17,8 C 25,9 C 12,3 km/h (3 Bft)
02/07/2007 12:00 25,6 C 68 % 1008,9 hPa 0,0 l/m 10,9 km/h (2 Bft) S 1,00 h 0,533 mm 831 W/m 19,2 C 25,6 C 17,1 km/h (3 Bft)
02/07/2007 13:00 27,5 C 60 % 1008,8 hPa 0,0 l/m 10,6 km/h (2 Bft) E 1,00 h 0,584 mm 851 W/m 19,0 C 27,5 C 16,1 km/h (3 Bft)
02/07/2007 14:00 28,2 C 56 % 1008,3 hPa 0,0 l/m 10,7 km/h (2 Bft) E-NE 1,00 h 0,635 mm 869 W/m 18,5 C 28,2 C 16,1 km/h (3 Bft)
02/07/2007 15:00 28,4 C 50 % 1008,2 hPa 0,0 l/m 8,1 km/h (2 Bft) E-NE 0,63 h 0,660 mm 629 W/m 17,0 C 28,4 C 14,0 km/h (3 Bft)
02/07/2007 16:00 29,5 C 47 % 1007,5 hPa 0,0 l/m 6,2 km/h (2 Bft) N 0,90 h 0,508 mm 652 W/m 16,9 C 29,5 C 11,3 km/h (2 Bft)
02/07/2007 17:00 30,6 C 40 % 1006,8 hPa 0,0 l/m 8,1 km/h (2 Bft) NE 1,00 h 0,508 mm 580 W/m 15,4 C 30,6 C 13,4 km/h (3 Bft)
02/07/2007 18:00 30,2 C 29 % 1006,2 hPa 0,0 l/m 23,5 km/h (4 Bft) SO 0,92 h 0,483 mm 353 W/m 10,2 C 30,2 C 31,9 km/h (5 Bft)
02/07/2007 19:00 28,6 C 30 % 1006,4 hPa 0,0 l/m 26,3 km/h (4 Bft) SO 0,53 h 0,533 mm 163 W/m 9,4 C 28,6 C 33,3 km/h (5 Bft)
02/07/2007 20:00 26,6 C 34 % 1006,7 hPa 0,0 l/m 24,6 km/h (4 Bft) SO 0,28 h 0,432 mm 51 W/m 9,4 C 26,6 C 32,4 km/h (5 Bft)
02/07/2007 21:00 25,1 C 38 % 1007,0 hPa 0,0 l/m 20,9 km/h (4 Bft) O-SO 0,10 h 0,305 mm 10 W/m 9,6 C 25,1 C 27,6 km/h (4 Bft)
02/07/2007 22:00 24,1 C 40 % 1007,2 hPa 0,0 l/m 15,2 km/h (3 Bft) O-SO 0,00 h 0,229 mm 0 W/m 9,8 C 24,1 C 20,6 km/h (4 Bft)
02/07/2007 23:00 22,7 C 44 % 1007,6 hPa 0,0 l/m 6,7 km/h (2 Bft) O-SO 0,00 h 0,178 mm 0 W/m 9,9 C 22,7 C 9,6 km/h (2 Bft)
03/07/2007 00:00 20,7 C 67 % 1007,8 hPa 0,0 l/m 2,2 km/h (1 Bft) N-NE 0,00 h 0,102 mm 0 W/m 14,4 C 20,7 C 4,3 km/h (1 Bft)
03/07/2007 01:00 19,9 C 83 % 1007,9 hPa 0,0 l/m 2,9 km/h (1 Bft) E-NE 0,00 h 0,051 mm 0 W/m 17,0 C 19,9 C 4,6 km/h (1 Bft)
03/07/2007 02:00 19,3 C 87 % 1008,0 hPa 0,0 l/m 4,8 km/h (1 Bft) S-SE 0,00 h 0,025 mm 0 W/m 17,0 C 19,3 C 6,7 km/h (2 Bft)
03/07/2007 03:00 18,7 C 89 % 1008,0 hPa 0,0 l/m 2,9 km/h (1 Bft) SO 0,00 h 0,025 mm 0 W/m 16,8 C 18,7 C 4,5 km/h (1 Bft)
03/07/2007 04:00 18,1 C 90 % 1007,7 hPa 0,0 l/m 3,2 km/h (1 Bft) O-NO 0,00 h 0,025 mm 0 W/m 16,3 C 18,1 C 4,9 km/h (1 Bft)
03/07/2007 05:00 17,6 C 86 % 1007,7 hPa 0,0 l/m 4,6 km/h (1 Bft) O 0,00 h 0,025 mm 5 W/m 15,2 C 17,6 C 6,7 km/h (2 Bft)
03/07/2007 06:00 18,4 C 77 % 1008,3 hPa 0,0 l/m 2,8 km/h (1 Bft) O 0,08 h 0,025 mm 26 W/m 14,3 C 18,4 C 4,2 km/h (1 Bft)
03/07/2007 07:00 19,1 C 72 % 1008,7 hPa 0,0 l/m 1,0 km/h (0 Bft) NO 0,00 h 0,025 mm 111 W/m 13,9 C 19,1 C 2,4 km/h (1 Bft)
03/07/2007 08:00 20,9 C 69 % 1009,0 hPa 0,0 l/m 1,2 km/h (1 Bft) NO 0,13 h 0,076 mm 198 W/m 15,1 C 20,9 C 2,9 km/h (1 Bft)
03/07/2007 09:00 22,5 C 64 % 1009,5 hPa 0,0 l/m 1,9 km/h (1 Bft) NE 0,67 h 0,127 mm 417 W/m 15,4 C 22,5 C 3,9 km/h (1 Bft)
03/07/2007 10:00 24,3 C 62 % 1009,7 hPa 0,0 l/m 5,8 km/h (1 Bft) E 0,62 h 0,254 mm 459 W/m 16,4 C 24,3 C 9,0 km/h (2 Bft)
03/07/2007 11:00 25,2 C 61 % 1009,9 hPa 0,0 l/m 7,5 km/h (2 Bft) E 0,95 h 0,330 mm 724 W/m 17,0 C 25,2 C 11,7 km/h (2 Bft)
03/07/2007 12:00 25,2 C 59 % 1009,9 hPa 0,0 l/m 11,7 km/h (2 Bft) E 0,47 h 0,508 mm 555 W/m 16,5 C 25,2 C 17,4 km/h (3 Bft)
03/07/2007 13:00 25,6 C 61 % 1009,8 hPa 0,0 l/m 12,7 km/h (3 Bft) E 0,90 h 0,432 mm 793 W/m 17,4 C 25,6 C 18,0 km/h (3 Bft)
03/07/2007 14:00 25,7 C 63 % 1009,5 hPa 0,0 l/m 11,1 km/h (2 Bft) E 0,95 h 0,584 mm 715 W/m 18,1 C 25,7 C 16,4 km/h (3 Bft)
03/07/2007 15:00 25,5 C 52 % 1009,1 hPa 0,0 l/m 8,3 km/h (2 Bft) E-NE 0,63 h 0,533 mm 540 W/m 14,9 C 25,5 C 12,4 km/h (3 Bft)
03/07/2007 16:00 26,2 C 52 % 1008,3 hPa 0,0 l/m 6,7 km/h (2 Bft) E 0,87 h 0,406 mm 595 W/m 15,5 C 26,2 C 11,4 km/h (2 Bft)
03/07/2007 17:00 25,6 C 57 % 1007,6 hPa 0,0 l/m 7,9 km/h (2 Bft) E 1,00 h 0,432 mm 509 W/m 16,5 C 25,6 C 12,4 km/h (3 Bft)
03/07/2007 18:00 25,4 C 53 % 1007,0 hPa 0,0 l/m 10,2 km/h (2 Bft) E-NE 0,40 h 0,381 mm 226 W/m 14,8 C 25,4 C 14,8 km/h (3 Bft)
03/07/2007 19:00 26,8 C 33 % 1006,9 hPa 0,0 l/m 26,7 km/h (4 Bft) SO 0,00 h 0,229 mm 90 W/m 9,2 C 26,8 C 35,0 km/h (5 Bft)
03/07/2007 20:00 25,9 C 36 % 1007,1 hPa 0,0 l/m 18,4 km/h (3 Bft) SO 0,00 h 0,356 mm 43 W/m 9,6 C 25,9 C 23,6 km/h (4 Bft)
03/07/2007 21:00 24,8 C 41 % 1007,4 hPa 0,0 l/m 19,3 km/h (3 Bft) SO 0,00 h 0,229 mm 7 W/m 10,8 C 24,8 C 24,4 km/h (4 Bft)
03/07/2007 22:00 23,8 C 48 % 1007,6 hPa 0,0 l/m 18,4 km/h (3 Bft) SO 0,00 h 0,203 mm 0 W/m 12,2 C 23,8 C 23,6 km/h (4 Bft)
03/07/2007 23:00 22,7 C 57 % 1007,3 hPa 0,0 l/m 21,7 km/h (4 Bft) SO 0,00 h 0,178 mm 0 W/m 13,6 C 22,7 C 27,4 km/h (4 Bft)
04/07/2007 00:00 22,3 C 59 % 1006,8 hPa 0,0 l/m 23,8 km/h (4 Bft) SO 0,00 h 0,152 mm 0 W/m 13,8 C 22,3 C 30,7 km/h (5 Bft)
04/07/2007 01:00 22,1 C 60 % 1006,2 hPa 0,0 l/m 29,4 km/h (5 Bft) SO 0,00 h 0,152 mm 0 W/m 14,0 C 22,1 C 38,0 km/h (5 Bft)
04/07/2007 02:00 21,8 C 61 % 1005,9 hPa 0,0 l/m 27,1 km/h (4 Bft) SO 0,00 h 0,178 mm 0 W/m 14,0 C 21,8 C 34,3 km/h (5 Bft)
04/07/2007 03:00 21,5 C 63 % 1005,5 hPa 0,0 l/m 26,8 km/h (4 Bft) SO 0,00 h 0,152 mm 0 W/m 14,0 C 21,5 C 34,6 km/h (5 Bft)
04/07/2007 04:00 21,2 C 61 % 1004,9 hPa 0,0 l/m 30,3 km/h (5 Bft) SO 0,00 h 0,152 mm 0 W/m 13,5 C 21,2 C 38,0 km/h (5 Bft)
04/07/2007 05:00 20,8 C 58 % 1004,6 hPa 0,0 l/m 29,3 km/h (5 Bft) SO 0,00 h 0,178 mm 0 W/m 12,3 C 20,8 C 37,9 km/h (5 Bft)
04/07/2007 06:00 20,5 C 56 % 1004,5 hPa 0,0 l/m 30,4 km/h (5 Bft) SO 0,00 h 0,203 mm 17 W/m 11,4 C 20,5 C 38,2 km/h (5 Bft)
04/07/2007 07:00 20,4 C 58 % 1004,4 hPa 0,0 l/m 31,0 km/h (5 Bft) SO 0,40 h 0,203 mm 115 W/m 11,8 C 20,4 C 39,0 km/h (6 Bft)
04/07/2007 08:00 21,8 C 49 % 1004,1 hPa 0,0 l/m 33,8 km/h (5 Bft) SO 1,00 h 0,279 mm 351 W/m 10,6 C 21,8 C 43,0 km/h (6 Bft)
04/07/2007 09:00 23,4 C 41 % 1003,8 hPa 0,0 l/m 33,4 km/h (5 Bft) SO 1,00 h 0,457 mm 530 W/m 9,2 C 23,4 C 44,4 km/h (6 Bft)
04/07/2007 10:00 25,6 C 30 % 1003,4 hPa 0,0 l/m 29,6 km/h (5 Bft) S-SO 1,00 h 0,635 mm 671 W/m 6,3 C 25,6 C 39,9 km/h (6 Bft)
04/07/2007 11:00 27,1 C 24 % 1003,5 hPa 0,0 l/m 28,8 km/h (4 Bft) O-SO 1,00 h 0,762 mm 792 W/m 4,8 C 27,1 C 40,3 km/h (6 Bft)
04/07/2007 12:00 27,4 C 22 % 1003,9 hPa 0,0 l/m 28,1 km/h (4 Bft) O-SO 1,00 h 0,864 mm 867 W/m 3,9 C 27,4 C 40,8 km/h (6 Bft)
04/07/2007 13:00 28,3 C 19 % 1003,7 hPa 0,0 l/m 29,4 km/h (5 Bft) O-SO 1,00 h 0,914 mm 893 W/m 2,4 C 28,3 C 41,2 km/h (6 Bft)
04/07/2007 14:00 28,3 C 19 % 1003,8 hPa 0,0 l/m 29,1 km/h (5 Bft) O-SO 1,00 h 0,991 mm 871 W/m 2,5 C 28,3 C 40,8 km/h (6 Bft)
04/07/2007 15:00 28,2 C 19 % 1003,8 hPa 0,0 l/m 26,9 km/h (4 Bft) O 1,00 h 0,965 mm 803 W/m 2,3 C 28,2 C 38,3 km/h (5 Bft)
04/07/2007 16:00 27,6 C 19 % 1004,2 hPa 0,0 l/m 28,8 km/h (4 Bft) O-NO 1,00 h 0,889 mm 692 W/m 1,9 C 27,6 C 42,2 km/h (6 Bft)
04/07/2007 17:00 26,8 C 19 % 1004,9 hPa 0,0 l/m 30,5 km/h (5 Bft) O-NO 1,00 h 0,838 mm 551 W/m 1,0 C 26,8 C 45,4 km/h (6 Bft)
04/07/2007 18:00 26,0 C 20 % 1005,1 hPa 0,0 l/m 31,9 km/h (5 Bft) O-NO 1,00 h 0,762 mm 389 W/m 1,1 C 26,0 C 46,9 km/h (6 Bft)
04/07/2007 19:00 25,2 C 20 % 1005,8 hPa 0,0 l/m 30,3 km/h (5 Bft) O-NO 1,00 h 0,660 mm 236 W/m 0,6 C 25,2 C 44,9 km/h (6 Bft)
04/07/2007 20:00 23,8 C 21 % 1006,1 hPa 0,0 l/m 26,8 km/h (4 Bft) O-NO 0,35 h 0,533 mm 54 W/m 0,1 C 23,8 C 39,9 km/h (6 Bft)
04/07/2007 21:00 22,9 C 21 % 1005,9 hPa 0,0 l/m 33,7 km/h (5 Bft) NO 0,02 h 0,356 mm 7 W/m -0,3 C 22,9 C 49,4 km/h (6 Bft)
04/07/2007 22:00 22,4 C 23 % 1006,8 hPa 0,0 l/m 17,6 km/h (3 Bft) NO 0,00 h 0,406 mm 0 W/m 0,2 C 22,4 C 27,5 km/h (4 Bft)
04/07/2007 23:00 21,5 C 24 % 1008,8 hPa 0,0 l/m 4,1 km/h (1 Bft) S-SE 0,00 h 0,229 mm 0 W/m 0,3 C 21,5 C 6,5 km/h (2 Bft)
05/07/2007 00:00 21,1 C 26 % 1009,3 hPa 0,0 l/m 9,9 km/h (2 Bft) NO 0,00 h 0,102 mm 0 W/m 0,6 C 21,1 C 14,8 km/h (3 Bft)
05/07/2007 01:00 19,8 C 28 % 1009,7 hPa 0,0 l/m 4,6 km/h (1 Bft) O 0,00 h 0,152 mm 0 W/m 0,6 C 19,8 C 6,9 km/h (2 Bft)
05/07/2007 02:00 19,0 C 28 % 1010,1 hPa 0,0 l/m 3,1 km/h (1 Bft) O 0,00 h 0,102 mm 0 W/m 0,2 C 19,0 C 4,8 km/h (1 Bft)
05/07/2007 03:00 18,4 C 29 % 1009,9 hPa 0,0 l/m 1,4 km/h (1 Bft) S 0,00 h 0,076 mm 0 W/m 0,2 C 18,4 C 2,5 km/h (1 Bft)
05/07/2007 04:00 18,2 C 30 % 1009,9 hPa 0,0 l/m 3,4 km/h (1 Bft) SO 0,00 h 0,076 mm 0 W/m 0,3 C 18,2 C 4,6 km/h (1 Bft)
05/07/2007 05:00 17,0 C 32 % 1010,4 hPa 0,0 l/m 0,5 km/h (0 Bft) O-SO 0,00 h 0,076 mm 5 W/m 0,3 C 17,0 C 1,0 km/h (0 Bft)
05/07/2007 06:00 17,6 C 32 % 1010,7 hPa 0,0 l/m 3,1 km/h (1 Bft) SO 0,02 h 0,025 mm 16 W/m 0,6 C 17,6 C 4,2 km/h (1 Bft)
05/07/2007 07:00 18,7 C 32 % 1011,1 hPa 0,0 l/m 0,4 km/h (0 Bft) O-SO 0,42 h 0,051 mm 117 W/m 1,6 C 18,7 C 1,0 km/h (0 Bft)
05/07/2007 08:00 21,9 C 30 % 1011,3 hPa 0,0 l/m 2,1 km/h (1 Bft) E 1,00 h 0,076 mm 354 W/m 3,7 C 21,9 C 3,6 km/h (1 Bft)
05/07/2007 09:00 24,1 C 29 % 1011,4 hPa 0,0 l/m 5,0 km/h (1 Bft) E 1,00 h 0,254 mm 520 W/m 4,9 C 24,1 C 7,8 km/h (2 Bft)
05/07/2007 10:00 26,4 C 23 % 1011,5 hPa 0,0 l/m 8,8 km/h (2 Bft) E 1,00 h 0,381 mm 670 W/m 3,8 C 26,4 C 13,4 km/h (3 Bft)
05/07/2007 11:00 27,3 C 23 % 1011,5 hPa 0,0 l/m 11,5 km/h (2 Bft) E 1,00 h 0,533 mm 784 W/m 4,0 C 27,3 C 17,3 km/h (3 Bft)
05/07/2007 12:00 27,5 C 21 % 1011,7 hPa 0,0 l/m 8,4 km/h (2 Bft) E 1,00 h 0,660 mm 857 W/m 3,4 C 27,5 C 15,2 km/h (3 Bft)
05/07/2007 13:00 27,6 C 22 % 1011,5 hPa 0,0 l/m 14,5 km/h (3 Bft) E 1,00 h 0,660 mm 884 W/m 4,2 C 27,6 C 21,2 km/h (4 Bft)
05/07/2007 14:00 27,1 C 24 % 1011,6 hPa 0,0 l/m 13,8 km/h (3 Bft) E 1,00 h 0,762 mm 838 W/m 5,0 C 27,1 C 19,3 km/h (3 Bft)
05/07/2007 15:00 27,1 C 27 % 1011,9 hPa 0,0 l/m 9,0 km/h (2 Bft) E 1,00 h 0,711 mm 766 W/m 6,3 C 27,1 C 14,6 km/h (3 Bft)
05/07/2007 16:00 26,4 C 29 % 1012,0 hPa 0,0 l/m 8,6 km/h (2 Bft) E 1,00 h 0,610 mm 683 W/m 6,7 C 26,4 C 14,7 km/h (3 Bft)
05/07/2007 17:00 25,4 C 30 % 1012,1 hPa 0,0 l/m 6,9 km/h (2 Bft) E 1,00 h 0,533 mm 538 W/m 6,4 C 25,4 C 12,0 km/h (2 Bft)
05/07/2007 18:00 24,8 C 40 % 1012,0 hPa 0,0 l/m 4,8 km/h (1 Bft) E-SE 1,00 h 0,432 mm 363 W/m 10,2 C 24,8 C 8,1 km/h (2 Bft)
05/07/2007 19:00 23,6 C 47 % 1012,1 hPa 0,0 l/m 2,5 km/h (1 Bft) E-SE 1,00 h 0,279 mm 207 W/m 11,7 C 23,6 C 4,5 km/h (1 Bft)
05/07/2007 20:00 22,5 C 48 % 1012,0 hPa 0,0 l/m 0,4 km/h (0 Bft) SE 0,05 h 0,152 mm 37 W/m 10,8 C 22,5 C 1,1 km/h (1 Bft)
05/07/2007 21:00 20,4 C 51 % 1012,0 hPa 0,0 l/m 1,9 km/h (1 Bft) N-NO 0,00 h 0,025 mm 7 W/m 9,8 C 20,4 C 3,3 km/h (1 Bft)
05/07/2007 22:00 19,8 C 44 % 1012,0 hPa 0,0 l/m 2,2 km/h (1 Bft) NO 0,00 h 0,025 mm 0 W/m 7,2 C 19,8 C 4,0 km/h (1 Bft)
05/07/2007 23:00 19,6 C 41 % 1011,9 hPa 0,0 l/m 3,9 km/h (1 Bft) NO 0,00 h 0,076 mm 0 W/m 6,1 C 19,6 C 5,4 km/h (1 Bft)
06/07/2007 00:00 20,0 C 42 % 1011,9 hPa 0,0 l/m 3,9 km/h (1 Bft) O 0,00 h 0,076 mm 0 W/m 6,7 C 20,0 C 5,5 km/h (1 Bft)
06/07/2007 01:00 18,5 C 44 % 1012,0 hPa 0,0 l/m 2,2 km/h (1 Bft) N-NE 0,00 h 0,076 mm 0 W/m 6,0 C 18,5 C 4,1 km/h (1 Bft)
06/07/2007 02:00 17,6 C 47 % 1011,8 hPa 0,0 l/m 1,4 km/h (1 Bft) N-NE 0,00 h 0,076 mm 0 W/m 6,2 C 17,6 C 3,2 km/h (1 Bft)
06/07/2007 03:00 17,8 C 62 % 1012,0 hPa 0,0 l/m 4,5 km/h (1 Bft) O-SO 0,00 h 0,051 mm 0 W/m 10,4 C 17,8 C 6,0 km/h (2 Bft)
06/07/2007 04:00 17,5 C 69 % 1012,1 hPa 0,0 l/m 5,1 km/h (1 Bft) O 0,00 h 0,051 mm 0 W/m 11,8 C 17,5 C 6,7 km/h (2 Bft)
06/07/2007 05:00 17,0 C 55 % 1012,4 hPa 0,0 l/m 5,9 km/h (2 Bft) O-NO 0,00 h 0,051 mm 5 W/m 7,9 C 17,0 C 8,3 km/h (2 Bft)
06/07/2007 06:00 16,2 C 55 % 1012,8 hPa 0,0 l/m 2,7 km/h (1 Bft) O-NO 0,02 h 0,051 mm 15 W/m 7,1 C 16,2 C 4,6 km/h (1 Bft)
06/07/2007 07:00 18,3 C 49 % 1012,9 hPa 0,0 l/m 3,5 km/h (1 Bft) NO 0,42 h 0,025 mm 126 W/m 7,4 C 18,3 C 6,3 km/h (2 Bft)
06/07/2007 08:00 21,7 C 42 % 1013,4 hPa 0,0 l/m 3,1 km/h (1 Bft) E 0,92 h 0,102 mm 321 W/m 8,4 C 21,7 C 5,0 km/h (1 Bft)
06/07/2007 09:00 23,5 C 39 % 1013,8 hPa 0,0 l/m 6,4 km/h (2 Bft) E 1,00 h 0,229 mm 505 W/m 8,6 C 23,5 C 10,2 km/h (2 Bft)
06/07/2007 10:00 24,0 C 50 % 1013,9 hPa 0,0 l/m 7,7 km/h (2 Bft) E 1,00 h 0,381 mm 650 W/m 12,8 C 24,0 C 11,9 km/h (2 Bft)
06/07/2007 11:00 24,2 C 60 % 1014,0 hPa 0,0 l/m 11,6 km/h (2 Bft) E 1,00 h 0,457 mm 762 W/m 16,0 C 24,2 C 16,4 km/h (3 Bft)
06/07/2007 12:00 24,4 C 62 % 1014,0 hPa 0,0 l/m 9,3 km/h (2 Bft) E 1,00 h 0,559 mm 836 W/m 16,5 C 24,4 C 13,9 km/h (3 Bft)
06/07/2007 13:00 24,9 C 56 % 1013,8 hPa 0,0 l/m 9,9 km/h (2 Bft) E 1,00 h 0,584 mm 861 W/m 15,5 C 24,9 C 15,3 km/h (3 Bft)
06/07/2007 14:00 25,1 C 50 % 1013,8 hPa 0,0 l/m 11,8 km/h (2 Bft) E 1,00 h 0,610 mm 840 W/m 13,8 C 25,1 C 17,1 km/h (3 Bft)
06/07/2007 15:00 25,0 C 45 % 1014,1 hPa 0,0 l/m 9,1 km/h (2 Bft) E 1,00 h 0,610 mm 775 W/m 12,2 C 25,0 C 14,9 km/h (3 Bft)
06/07/2007 16:00 25,2 C 43 % 1013,7 hPa 0,0 l/m 8,2 km/h (2 Bft) E 1,00 h 0,559 mm 666 W/m 11,8 C 25,2 C 13,5 km/h (3 Bft)
06/07/2007 17:00 25,0 C 45 % 1013,7 hPa 0,0 l/m 6,0 km/h (2 Bft) E 1,00 h 0,508 mm 529 W/m 12,3 C 25,0 C 9,9 km/h (2 Bft)
06/07/2007 18:00 24,0 C 48 % 1013,2 hPa 0,0 l/m 5,4 km/h (1 Bft) E 1,00 h 0,381 mm 369 W/m 12,3 C 24,0 C 9,3 km/h (2 Bft)
06/07/2007 19:00 23,0 C 58 % 1013,1 hPa 0,0 l/m 4,4 km/h (1 Bft) E 1,00 h 0,279 mm 203 W/m 14,3 C 23,0 C 7,6 km/h (2 Bft)
06/07/2007 20:00 20,3 C 71 % 1013,2 hPa 0,0 l/m 2,6 km/h (1 Bft) E-SE 0,08 h 0,152 mm 32 W/m 14,9 C 20,3 C 4,9 km/h (1 Bft)
06/07/2007 21:00 18,7 C 79 % 1013,2 hPa 0,0 l/m 0,6 km/h (0 Bft) E 0,00 h 0,025 mm 7 W/m 14,9 C 18,7 C 1,9 km/h (1 Bft)
06/07/2007 22:00 17,8 C 83 % 1013,6 hPa 0,0 l/m 0,1 km/h (0 Bft) E 0,00 h 0,000 mm 0 W/m 14,8 C 17,8 C 0,5 km/h (0 Bft)
06/07/2007 23:00 17,3 C 85 % 1013,7 hPa 0,0 l/m 0,4 km/h (0 Bft) E 0,00 h 0,025 mm 0 W/m 14,7 C 17,3 C 1,1 km/h (1 Bft)
07/07/2007 00:00 17,0 C 86 % 1013,9 hPa 0,0 l/m 0,7 km/h (0 Bft) SE 0,00 h 0,025 mm 0 W/m 14,5 C 17,0 C 1,5 km/h (1 Bft)
07/07/2007 01:00 16,6 C 86 % 1014,2 hPa 0,0 l/m 1,7 km/h (1 Bft) SE 0,00 h 0,025 mm 0 W/m 14,2 C 16,6 C 3,3 km/h (1 Bft)
07/07/2007 02:00 16,3 C 86 % 1014,3 hPa 0,0 l/m 3,3 km/h (1 Bft) SO 0,00 h 0,025 mm 0 W/m 13,9 C 16,3 C 5,2 km/h (1 Bft)
07/07/2007 03:00 15,8 C 86 % 1013,9 hPa 0,0 l/m 4,2 km/h (1 Bft) O-NO 0,00 h 0,025 mm 0 W/m 13,6 C 15,8 C 5,9 km/h (2 Bft)
07/07/2007 04:00 15,4 C 86 % 1013,7 hPa 0,0 l/m 3,4 km/h (1 Bft) O-NO 0,00 h 0,025 mm 0 W/m 13,1 C 15,4 C 5,9 km/h (2 Bft)
07/07/2007 05:00 15,6 C 82 % 1014,2 hPa 0,0 l/m 6,3 km/h (2 Bft) O 0,00 h 0,025 mm 5 W/m 12,5 C 15,6 C 8,0 km/h (2 Bft)
07/07/2007 06:00 16,0 C 76 % 1014,7 hPa 0,0 l/m 3,1 km/h (1 Bft) O-NO 0,00 h 0,025 mm 15 W/m 11,9 C 16,0 C 5,0 km/h (1 Bft)
07/07/2007 07:00 18,0 C 71 % 1014,9 hPa 0,0 l/m 1,2 km/h (1 Bft) NO 0,40 h 0,025 mm 110 W/m 12,7 C 18,0 C 3,1 km/h (1 Bft)
07/07/2007 08:00 21,8 C 62 % 1014,9 hPa 0,0 l/m 3,2 km/h (1 Bft) E-NE 1,00 h 0,076 mm 341 W/m 14,1 C 21,8 C 5,8 km/h (2 Bft)
07/07/2007 09:00 22,9 C 61 % 1015,4 hPa 0,0 l/m 5,3 km/h (1 Bft) E 1,00 h 0,229 mm 502 W/m 14,8 C 22,9 C 8,7 km/h (2 Bft)
07/07/2007 10:00 24,0 C 59 % 1015,4 hPa 0,0 l/m 8,1 km/h (2 Bft) E 1,00 h 0,330 mm 646 W/m 15,6 C 24,0 C 14,1 km/h (3 Bft)
07/07/2007 11:00 24,2 C 63 % 1015,3 hPa 0,0 l/m 10,8 km/h (2 Bft) E 1,00 h 0,457 mm 795 W/m 16,7 C 24,2 C 17,5 km/h (3 Bft)
07/07/2007 12:00 24,9 C 62 % 1015,5 hPa 0,0 l/m 10,4 km/h (2 Bft) E 0,97 h 0,533 mm 909 W/m 17,2 C 24,9 C 16,7 km/h (3 Bft)
07/07/2007 13:00 25,2 C 60 % 1015,4 hPa 0,0 l/m 10,7 km/h (2 Bft) E 0,90 h 0,610 mm 922 W/m 16,9 C 25,2 C 17,9 km/h (3 Bft)
07/07/2007 14:00 25,2 C 61 % 1015,4 hPa 0,0 l/m 10,5 km/h (2 Bft) E 0,93 h 0,610 mm 842 W/m 17,0 C 25,2 C 17,5 km/h (3 Bft)
07/07/2007 15:00 25,2 C 60 % 1015,6 hPa 0,0 l/m 9,4 km/h (2 Bft) E 1,00 h 0,584 mm 812 W/m 16,9 C 25,2 C 15,7 km/h (3 Bft)
07/07/2007 16:00 25,0 C 65 % 1015,7 hPa 0,0 l/m 9,6 km/h (2 Bft) E 0,73 h 0,559 mm 622 W/m 18,0 C 25,0 C 15,0 km/h (3 Bft)
07/07/2007 17:00 24,1 C 71 % 1015,6 hPa 0,0 l/m 7,9 km/h (2 Bft) E 0,80 h 0,432 mm 503 W/m 18,6 C 24,1 C 12,6 km/h (3 Bft)
07/07/2007 18:00 23,1 C 75 % 1015,4 hPa 0,0 l/m 6,2 km/h (2 Bft) E 0,67 h 0,330 mm 303 W/m 18,4 C 23,1 C 10,6 km/h (2 Bft)
07/07/2007 19:00 21,8 C 80 % 1015,2 hPa 0,0 l/m 4,4 km/h (1 Bft) E 0,27 h 0,229 mm 127 W/m 18,2 C 21,8 C 8,1 km/h (2 Bft)
07/07/2007 20:00 20,5 C 86 % 1015,4 hPa 0,0 l/m 3,6 km/h (1 Bft) E-SE 0,00 h 0,102 mm 27 W/m 18,0 C 20,5 C 6,8 km/h (2 Bft)
07/07/2007 21:00 19,7 C 89 % 1015,4 hPa 0,0 l/m 0,7 km/h (0 Bft) E-SE 0,00 h 0,025 mm 5 W/m 17,9 C 19,7 C 2,1 km/h (1 Bft)
07/07/2007 22:00 19,1 C 91 % 1015,9 hPa 0,0 l/m 0,1 km/h (0 Bft) E-SE 0,00 h 0,000 mm 0 W/m 17,6 C 19,1 C 0,4 km/h (0 Bft)
07/07/2007 23:00 18,8 C 93 % 1016,1 hPa 0,0 l/m 0,0 km/h (0 Bft) N 0,00 h 0,025 mm 0 W/m 17,6 C 18,8 C 0,0 km/h (0 Bft)
08/07/2007 00:00 18,5 C 93 % 1016,1 hPa 0,0 l/m 0,0 km/h (0 Bft) N 0,00 h 0,000 mm 0 W/m 17,4 C 18,5 C 0,0 km/h (0 Bft)
08/07/2007 01:00 18,3 C 93 % 1015,9 hPa 0,0 l/m 0,0 km/h (0 Bft) N 0,00 h 0,000 mm 0 W/m 17,2 C 18,3 C 0,0 km/h (0 Bft)
08/07/2007 02:00 18,2 C 94 % 1016,1 hPa 0,0 l/m 1,7 km/h (1 Bft) S-SE 0,00 h 0,000 mm 0 W/m 17,2 C 18,2 C 3,1 km/h (1 Bft)
08/07/2007 03:00 18,3 C 94 % 1016,3 hPa 0,0 l/m 1,2 km/h (1 Bft) SO 0,00 h 0,025 mm 0 W/m 17,3 C 18,3 C 1,9 km/h (1 Bft)
08/07/2007 04:00 18,5 C 94 % 1016,4 hPa 0,0 l/m 0,0 km/h (0 Bft) N 0,00 h 0,000 mm 0 W/m 17,6 C 18,5 C 0,0 km/h (0 Bft)
08/07/2007 05:00 18,5 C 94 % 1016,2 hPa 0,0 l/m 0,0 km/h (0 Bft) SO 0,00 h 0,000 mm 0 W/m 17,5 C 18,5 C 0,0 km/h (0 Bft)
08/07/2007 06:00 18,5 C 93 % 1016,4 hPa 0,0 l/m 3,2 km/h (1 Bft) O-NO 0,00 h 0,000 mm 15 W/m 17,3 C 18,5 C 5,1 km/h (1 Bft)
08/07/2007 07:00 19,1 C 89 % 1016,8 hPa 0,0 l/m 2,7 km/h (1 Bft) O-NO 0,03 h 0,025 mm 72 W/m 17,2 C 19,1 C 4,6 km/h (1 Bft)
08/07/2007 08:00 21,1 C 79 % 1017,1 hPa 0,0 l/m 1,9 km/h (1 Bft) NO 0,48 h 0,051 mm 236 W/m 17,2 C 21,1 C 3,7 km/h (1 Bft)
08/07/2007 09:00 23,3 C 70 % 1016,9 hPa 0,0 l/m 3,2 km/h (1 Bft) E-NE 0,88 h 0,152 mm 484 W/m 17,5 C 23,3 C 5,6 km/h (1 Bft)
08/07/2007 10:00 25,2 C 62 % 1016,6 hPa 0,0 l/m 6,2 km/h (2 Bft) E 1,00 h 0,330 mm 643 W/m 17,5 C 25,2 C 10,3 km/h (2 Bft)
08/07/2007 11:00 25,0 C 64 % 1016,2 hPa 0,0 l/m 11,1 km/h (2 Bft) E 1,00 h 0,432 mm 734 W/m 17,6 C 25,0 C 17,1 km/h (3 Bft)
08/07/2007 12:00 24,9 C 65 % 1016,5 hPa 0,0 l/m 12,3 km/h (3 Bft) E 1,00 h 0,533 mm 815 W/m 18,0 C 24,9 C 18,3 km/h (3 Bft)
08/07/2007 13:00 25,2 C 67 % 1017,0 hPa 0,0 l/m 12,7 km/h (3 Bft) E 0,95 h 0,584 mm 908 W/m 18,6 C 25,2 C 19,1 km/h (3 Bft)
08/07/2007 14:00 23,5 C 74 % 1017,1 hPa 0,0 l/m 9,3 km/h (2 Bft) E 0,00 h 0,610 mm 325 W/m 18,5 C 23,5 C 15,0 km/h (3 Bft)
08/07/2007 15:00 23,2 C 74 % 1016,6 hPa 0,0 l/m 7,0 km/h (2 Bft) E 0,00 h 0,254 mm 302 W/m 18,4 C 23,2 C 11,2 km/h (2 Bft)
08/07/2007 16:00 23,8 C 71 % 1016,2 hPa 0,0 l/m 5,4 km/h (1 Bft) E-SE 0,32 h 0,229 mm 446 W/m 18,2 C 23,8 C 9,1 km/h (2 Bft)
08/07/2007 17:00 23,9 C 71 % 1015,6 hPa 0,0 l/m 6,4 km/h (2 Bft) E 0,50 h 0,305 mm 388 W/m 18,2 C 23,9 C 9,8 km/h (2 Bft)
08/07/2007 18:00 23,7 C 71 % 1015,2 hPa 0,0 l/m 5,7 km/h (1 Bft) E-SE 0,45 h 0,279 mm 256 W/m 18,2 C 23,7 C 9,0 km/h (2 Bft)
08/07/2007 19:00 23,2 C 73 % 1014,9 hPa 0,0 l/m 4,1 km/h (1 Bft) E-SE 0,82 h 0,178 mm 175 W/m 18,0 C 23,2 C 6,5 km/h (2 Bft)
08/07/2007 20:00 21,8 C 77 % 1014,9 hPa 0,0 l/m 0,3 km/h (0 Bft) E-SE 0,00 h 0,127 mm 22 W/m 17,5 C 21,8 C 0,9 km/h (0 Bft)
08/07/2007 21:00 20,3 C 85 % 1015,1 hPa 0,0 l/m 0,0 km/h (0 Bft) E-SE 0,00 h 0,025 mm 6 W/m 17,7 C 20,3 C 0,5 km/h (0 Bft)
08/07/2007 22:00 19,6 C 89 % 1015,1 hPa 0,0 l/m 0,0 km/h (0 Bft) N 0,00 h 0,000 mm 0 W/m 17,7 C 19,6 C 0,0 km/h (0 Bft)
08/07/2007 23:00 19,3 C 90 % 1014,7 hPa 0,0 l/m 2,0 km/h (1 Bft) S-SE 0,00 h 0,025 mm 0 W/m 17,6 C 19,3 C 3,1 km/h (1 Bft)
Min-Date _ 07/07/07 04/07/07 04/07/07 - 02/07/07 - - - - 04/07/07 07/07/07 02/07/07
_ Min-Heure 04:41 13:25 10:15 - 00:00 - - - - 21:29 04:41 00:01
Minimum _ 15,2 C 18 % 1003,3 hPa - 0,0 km/h (0 Bft) - - - - -1,1 C 15,2 C 0,0 km/h (0 Bft)
Max-Date _ 02/07/07 02/07/07 08/07/07 02/07/07 04/07/07 - 02/07/07 04/07/07 08/07/07 02/07/07 02/07/07 04/07/07
_ Max-Heure 17:35 06:33 08:15 07:25 16:37 - 18:41 14:00 13:37 13:08 17:35 16:58
Maximum _ 31,2 C 95 % 1017,2 hPa 0,2 l/m 45,1 km/h
O-NO (6 Bft)
- 0,03 h 0,991 mm 1136 W/m 19,9 C 31,2 C 66,0 km/h
O (8 Bft)
Moyenne _ 22,3 C 58 % 1011,1 hPa #0,2 l/m 9,3 km/h (2 Bft) E #72:43 h #46,086 mm 423 W/m 12,3 C 22,3 C 13,6 km/h (3 Bft)
Roquefort les pins